createdAt,value
2023-05-22T00:01:49.613Z,90.30
2023-05-22T00:04:21.776Z,90.70
2023-05-22T00:06:52.055Z,90.50
2023-05-22T00:09:25.807Z,90.40
2023-05-22T00:11:56.236Z,90.30
2023-05-22T00:14:26.299Z,90.30
2023-05-22T00:16:56.558Z,90.30
2023-05-22T00:19:26.709Z,90.10
2023-05-22T00:21:56.814Z,90.50
2023-05-22T00:24:29.560Z,90.30
2023-05-22T00:26:59.651Z,90.30
2023-05-22T00:29:29.753Z,90.40
2023-05-22T00:31:59.947Z,90.60
2023-05-22T00:34:30.045Z,90.90
2023-05-22T00:37:00.263Z,90.90
2023-05-22T00:39:33.108Z,90.70
2023-05-22T00:42:03.348Z,91.10
2023-05-22T00:44:33.569Z,90.90
2023-05-22T00:47:03.660Z,90.90
2023-05-22T00:49:33.874Z,90.90
2023-05-22T00:52:04.307Z,90.90
2023-05-22T00:54:37.074Z,90.90
2023-05-22T00:57:08.346Z,90.90
2023-05-22T00:59:39.352Z,90.90
2023-05-22T01:02:09.688Z,91.00
2023-05-22T01:04:39.960Z,91.10
2023-05-22T01:07:10.153Z,91.20
2023-05-22T01:09:42.923Z,91.20
2023-05-22T01:12:20.951Z,91.40
2023-05-22T01:15:04.447Z,91.30
2023-05-22T01:17:46.427Z,91.40
2023-05-22T01:20:24.397Z,91.40
2023-05-22T01:23:22.380Z,91.60
2023-05-22T01:26:41.258Z,91.60
2023-05-22T01:29:46.421Z,91.80
2023-05-22T01:32:24.324Z,91.90
2023-05-22T01:34:59.540Z,91.80
2023-05-22T01:37:31.159Z,92.00
2023-05-22T01:40:01.455Z,92.00
2023-05-22T01:42:31.692Z,92.10
2023-05-22T01:45:01.785Z,92.30
2023-05-22T01:47:35.820Z,92.40
2023-05-22T01:50:06.604Z,92.50
2023-05-22T01:52:44.440Z,92.60
2023-05-22T01:55:20.530Z,92.70
2023-05-22T01:58:01.264Z,92.80
2023-05-22T02:00:33.722Z,92.70
2023-05-22T02:03:12.286Z,92.80
2023-05-22T02:05:42.910Z,92.90
2023-05-22T02:08:15.009Z,93.00
2023-05-22T02:10:46.599Z,93.00
2023-05-22T02:13:16.728Z,93.10
2023-05-22T02:15:49.161Z,93.10
2023-05-22T02:18:22.541Z,93.30
2023-05-22T02:20:52.664Z,93.20
2023-05-22T02:23:22.982Z,93.20
2023-05-22T02:25:53.107Z,93.30
2023-05-22T02:28:23.156Z,93.40
2023-05-22T02:30:53.577Z,93.30
2023-05-22T02:33:27.174Z,93.30
2023-05-22T02:35:57.242Z,93.30
2023-05-22T02:38:27.342Z,93.20
2023-05-22T02:40:57.489Z,93.30
2023-05-22T02:43:27.523Z,93.30
2023-05-22T02:45:57.711Z,93.40
2023-05-22T02:48:30.758Z,93.40
2023-05-22T02:51:00.913Z,93.40
2023-05-22T02:53:31.379Z,93.50
2023-05-22T02:56:01.655Z,93.60
2023-05-22T02:58:31.742Z,93.50
2023-05-22T03:01:03.618Z,93.60
2023-05-22T03:03:36.816Z,93.70
2023-05-22T03:06:09.070Z,93.80
2023-05-22T03:08:43.575Z,93.80
2023-05-22T03:11:14.218Z,93.90
2023-05-22T03:13:44.284Z,93.90
2023-05-22T03:16:14.388Z,93.90
2023-05-22T03:18:47.113Z,93.90
2023-05-22T03:21:17.368Z,94.00
2023-05-22T03:23:48.416Z,94.10
2023-05-22T03:26:18.556Z,94.20
2023-05-22T03:28:48.664Z,94.40
2023-05-22T03:31:18.739Z,94.50
2023-05-22T03:33:51.461Z,94.50
2023-05-22T03:36:21.864Z,94.40
2023-05-22T03:38:52.076Z,94.50
2023-05-22T03:41:22.554Z,94.80
2023-05-22T03:43:52.647Z,94.90
2023-05-22T03:46:23.276Z,94.70
2023-05-22T03:48:56.024Z,95.00
2023-05-22T03:51:26.069Z,94.90
2023-05-22T03:53:56.124Z,95.10
2023-05-22T03:56:26.791Z,94.90
2023-05-22T03:58:56.953Z,95.10
2023-05-22T04:01:27.344Z,95.20
2023-05-22T04:04:00.078Z,95.10
2023-05-22T04:06:33.201Z,95.20
2023-05-22T04:09:04.728Z,95.40
2023-05-22T04:11:34.792Z,95.40
2023-05-22T04:14:06.767Z,95.60
2023-05-22T04:16:37.042Z,95.70
2023-05-22T04:19:09.867Z,95.80
2023-05-22T04:21:40.045Z,95.60
2023-05-22T04:24:10.976Z,95.70
2023-05-22T04:26:42.466Z,95.70
2023-05-22T04:29:14.827Z,95.60
2023-05-22T04:31:45.024Z,95.40
2023-05-22T04:34:19.579Z,95.50
2023-05-22T04:36:49.686Z,95.50
2023-05-22T04:39:19.836Z,95.60
2023-05-22T04:41:50.731Z,95.30
2023-05-22T04:44:23.048Z,95.30
2023-05-22T04:46:57.603Z,95.20
2023-05-22T04:49:30.178Z,95.20
2023-05-22T04:52:04.879Z,95.40
2023-05-22T04:54:35.047Z,95.10
2023-05-22T04:57:06.060Z,95.00
2023-05-22T04:59:40.360Z,94.60
2023-05-22T05:02:10.630Z,94.90
2023-05-22T05:04:43.644Z,94.90
2023-05-22T05:07:13.708Z,94.70
2023-05-22T05:09:43.822Z,94.90
2023-05-22T05:12:13.878Z,94.80
2023-05-22T05:14:43.935Z,94.60
2023-05-22T05:17:14.058Z,94.70
2023-05-22T05:19:46.707Z,94.50
2023-05-22T05:22:16.793Z,94.70
2023-05-22T05:24:46.859Z,94.90
2023-05-22T05:27:16.967Z,95.00
2023-05-22T05:29:47.298Z,94.60
2023-05-22T05:32:17.527Z,94.30
2023-05-22T05:34:50.284Z,94.50
2023-05-22T05:37:20.499Z,94.60
2023-05-22T05:39:50.598Z,94.50
2023-05-22T05:42:20.732Z,94.70
2023-05-22T05:44:50.821Z,95.00
2023-05-22T05:47:24.334Z,95.10
2023-05-22T05:49:57.063Z,94.80
2023-05-22T05:52:32.638Z,95.00
2023-05-22T05:55:03.668Z,95.40
2023-05-22T05:57:35.024Z,95.10
2023-05-22T06:00:05.854Z,94.90
2023-05-22T06:02:36.290Z,94.80
2023-05-22T06:05:10.575Z,94.90
2023-05-22T06:07:40.940Z,94.70
2023-05-22T06:10:13.206Z,95.00
2023-05-22T06:12:43.688Z,94.50
2023-05-22T06:15:13.893Z,94.20
2023-05-22T06:17:43.986Z,94.20
2023-05-22T06:20:17.168Z,94.60
2023-05-22T06:22:47.269Z,93.90
2023-05-22T06:25:17.534Z,94.10
2023-05-22T06:27:47.585Z,94.10
2023-05-22T06:30:28.360Z,93.90
2023-05-22T06:33:08.193Z,94.30
2023-05-22T06:35:41.083Z,93.70
2023-05-22T06:38:11.223Z,93.90
2023-05-22T06:40:41.631Z,94.20
2023-05-22T06:43:12.526Z,93.60
2023-05-22T06:45:42.617Z,93.90
2023-05-22T06:48:13.729Z,94.00
2023-05-22T06:50:46.384Z,93.70
2023-05-22T06:53:16.603Z,93.90
2023-05-22T06:55:46.887Z,93.80
2023-05-22T06:58:16.992Z,94.10
2023-05-22T07:00:47.214Z,94.20
2023-05-22T07:03:17.467Z,94.00
2023-05-22T07:05:50.322Z,94.10
2023-05-22T07:08:20.396Z,93.20
2023-05-22T07:10:50.779Z,93.80
2023-05-22T07:13:20.845Z,93.50
2023-05-22T07:15:50.970Z,93.80
2023-05-22T07:18:21.083Z,93.90
2023-05-22T07:20:53.766Z,93.50
2023-05-22T07:23:26.115Z,93.20
2023-05-22T07:25:56.710Z,93.30
2023-05-22T07:28:26.835Z,93.30
2023-05-22T07:30:57.530Z,93.70
2023-05-22T07:33:28.361Z,92.50
2023-05-22T07:36:01.150Z,92.60
2023-05-22T07:38:31.268Z,92.70
2023-05-22T07:41:03.021Z,92.70
2023-05-22T07:43:33.105Z,92.00
2023-05-22T07:46:03.268Z,92.70
2023-05-22T07:48:33.409Z,93.50
2023-05-22T07:51:06.586Z,92.60
2023-05-22T07:53:36.725Z,92.80
2023-05-22T07:56:07.140Z,92.70
2023-05-22T07:58:37.280Z,92.80
2023-05-22T08:01:09.537Z,92.80
2023-05-22T08:03:39.955Z,92.60
2023-05-22T08:06:13.195Z,92.40
2023-05-22T08:08:43.354Z,91.90
2023-05-22T08:11:13.422Z,91.60
2023-05-22T08:13:43.595Z,91.40
2023-05-22T08:16:14.284Z,91.50
2023-05-22T08:18:44.491Z,91.80
2023-05-22T08:21:17.228Z,91.20
2023-05-22T08:23:47.453Z,91.60
2023-05-22T08:26:20.756Z,91.20
2023-05-22T08:28:51.272Z,91.50
2023-05-22T08:31:21.693Z,90.80
2023-05-22T08:33:51.862Z,91.30
2023-05-22T08:36:24.859Z,90.90
2023-05-22T08:38:54.938Z,90.40
2023-05-22T08:41:25.163Z,90.70
2023-05-22T08:43:55.648Z,90.10
2023-05-22T08:46:30.092Z,89.30
2023-05-22T08:49:01.770Z,90.30
2023-05-22T08:51:36.623Z,88.70
2023-05-22T08:54:09.960Z,88.70
2023-05-22T08:56:52.900Z,89.90
2023-05-22T08:59:26.406Z,88.60
2023-05-22T09:01:58.210Z,88.10
2023-05-22T09:04:28.906Z,87.40
2023-05-22T09:07:06.151Z,87.80
2023-05-22T09:09:40.060Z,87.10
2023-05-22T09:12:13.799Z,87.40
2023-05-22T09:14:44.793Z,87.50
2023-05-22T09:17:18.851Z,86.20
2023-05-22T09:19:49.848Z,86.30
2023-05-22T09:22:24.314Z,86.20
2023-05-22T09:24:55.143Z,86.70
2023-05-22T09:27:26.814Z,86.30
2023-05-22T09:30:00.134Z,86.00
2023-05-22T09:32:33.580Z,85.20
2023-05-22T09:35:07.535Z,85.60
2023-05-22T09:37:40.656Z,85.00
2023-05-22T09:40:14.737Z,84.80
2023-05-22T09:42:48.488Z,86.80
2023-05-22T09:45:25.127Z,84.70
2023-05-22T09:47:55.534Z,84.40
2023-05-22T09:50:25.657Z,84.20
2023-05-22T09:52:59.375Z,84.00
2023-05-22T09:55:31.942Z,83.50
2023-05-22T09:58:07.049Z,83.80
2023-05-22T10:00:39.274Z,83.70
2023-05-22T10:03:15.523Z,83.30
2023-05-22T10:05:51.451Z,82.40
2023-05-22T10:08:27.970Z,83.40
2023-05-22T10:10:58.850Z,83.00
2023-05-22T10:13:29.427Z,82.40
2023-05-22T10:16:00.361Z,83.80
2023-05-22T10:18:31.771Z,82.70
2023-05-22T10:21:03.845Z,82.50
2023-05-22T10:23:36.753Z,82.40
2023-05-22T10:26:07.384Z,81.40
2023-05-22T10:28:45.499Z,81.00
2023-05-22T10:31:30.314Z,80.80
2023-05-22T10:34:05.804Z,80.70
2023-05-22T10:36:54.470Z,80.30
2023-05-22T10:39:42.202Z,80.10
2023-05-22T10:42:16.524Z,79.60
2023-05-22T10:44:46.404Z,80.40
2023-05-22T10:47:17.931Z,78.10
2023-05-22T10:49:49.866Z,78.20
2023-05-22T10:52:22.138Z,77.50
2023-05-22T10:54:58.038Z,77.80
2023-05-22T10:57:28.212Z,77.40
2023-05-22T11:00:11.042Z,77.00
2023-05-22T11:02:46.474Z,75.80
2023-05-22T11:05:38.095Z,77.90
2023-05-22T11:08:38.084Z,77.70
2023-05-22T11:11:17.724Z,77.10
2023-05-22T11:13:54.634Z,78.80
2023-05-22T11:16:24.745Z,76.30
2023-05-22T11:21:44.876Z,75.50
2023-05-22T11:24:17.134Z,75.10
2023-05-22T11:27:05.360Z,75.00
2023-05-22T11:29:37.597Z,76.20
2023-05-22T11:32:09.054Z,75.70
2023-05-22T11:34:43.288Z,74.60
2023-05-22T11:37:13.455Z,74.10
2023-05-22T11:39:43.507Z,74.00
2023-05-22T11:42:16.418Z,75.50
2023-05-22T11:44:46.490Z,76.30
2023-05-22T11:47:16.784Z,74.20
2023-05-22T11:49:47.141Z,74.00
2023-05-22T11:52:19.261Z,73.50
2023-05-22T11:54:49.900Z,72.80
2023-05-22T11:57:23.201Z,72.70
2023-05-22T11:59:53.361Z,72.00
2023-05-22T12:02:23.843Z,72.00
2023-05-22T12:04:57.839Z,74.50
2023-05-22T12:07:29.548Z,72.60
2023-05-22T12:10:01.366Z,73.10
2023-05-22T12:12:34.151Z,72.80
2023-05-22T12:15:04.237Z,74.20
2023-05-22T12:17:34.345Z,71.30
2023-05-22T12:20:04.931Z,71.10
2023-05-22T12:22:35.052Z,70.80
2023-05-22T12:25:05.106Z,70.60
2023-05-22T12:27:38.623Z,70.80
2023-05-22T12:30:13.538Z,70.90
2023-05-22T12:32:43.777Z,69.60
2023-05-22T12:35:19.367Z,70.80
2023-05-22T12:37:53.605Z,69.60
2023-05-22T12:40:23.706Z,68.80
2023-05-22T12:42:56.540Z,69.30
2023-05-22T12:45:26.619Z,68.20
2023-05-22T12:47:56.690Z,68.10
2023-05-22T12:50:27.230Z,67.80
2023-05-22T12:52:57.301Z,69.10
2023-05-22T12:55:27.838Z,67.60
2023-05-22T12:58:00.503Z,67.10
2023-05-22T13:00:30.599Z,67.80
2023-05-22T13:03:00.915Z,68.40
2023-05-22T13:05:31.156Z,68.30
2023-05-22T13:08:01.265Z,66.60
2023-05-22T13:10:31.458Z,68.70
2023-05-22T13:13:04.234Z,68.00
2023-05-22T13:15:36.326Z,67.20
2023-05-22T13:18:06.729Z,65.70
2023-05-22T13:20:38.388Z,64.70
2023-05-22T13:23:08.731Z,65.20
2023-05-22T13:25:39.072Z,65.60
2023-05-22T13:28:11.971Z,65.90
2023-05-22T13:30:42.142Z,64.80
2023-05-22T13:33:12.469Z,66.00
2023-05-22T13:35:42.662Z,65.70
2023-05-22T13:38:12.906Z,65.70
2023-05-22T13:40:43.089Z,66.10
2023-05-22T13:43:15.973Z,64.80
2023-05-22T13:45:46.152Z,64.90
2023-05-22T13:48:16.312Z,64.50
2023-05-22T13:50:46.529Z,65.50
2023-05-22T13:53:16.622Z,65.70
2023-05-22T13:55:47.411Z,66.10
2023-05-22T13:58:20.092Z,65.10
2023-05-22T14:00:50.321Z,64.50
2023-05-22T14:03:21.382Z,64.10
2023-05-22T14:05:51.606Z,63.90
2023-05-22T14:08:21.711Z,63.70
2023-05-22T14:10:51.825Z,63.50
2023-05-22T14:13:24.524Z,63.30
2023-05-22T14:15:54.605Z,63.90
2023-05-22T14:18:24.836Z,64.10
2023-05-22T14:20:54.956Z,63.50
2023-05-22T14:23:25.309Z,62.90
2023-05-22T14:25:55.382Z,63.20
2023-05-22T14:28:28.074Z,62.60
2023-05-22T14:30:59.435Z,63.30
2023-05-22T14:33:29.549Z,63.40
2023-05-22T14:35:59.727Z,63.50
2023-05-22T14:38:30.086Z,62.10
2023-05-22T14:41:00.150Z,62.50
2023-05-22T14:43:33.666Z,62.20
2023-05-22T14:46:03.932Z,62.60
2023-05-22T14:48:34.132Z,62.00
2023-05-22T14:51:04.192Z,61.50
2023-05-22T14:53:34.346Z,61.70
2023-05-22T14:56:04.937Z,62.40
2023-05-22T14:58:37.702Z,60.60
2023-05-22T15:01:08.287Z,60.60
2023-05-22T15:03:38.689Z,60.00
2023-05-22T15:06:09.264Z,61.70
2023-05-22T15:08:39.453Z,62.10
2023-05-22T15:11:09.577Z,60.70
2023-05-22T15:13:42.237Z,60.70
2023-05-22T15:16:12.339Z,61.80
2023-05-22T15:18:42.420Z,61.90
2023-05-22T15:21:12.693Z,61.20
2023-05-22T15:23:43.041Z,59.80
2023-05-22T15:26:13.123Z,61.10
2023-05-22T15:28:45.789Z,59.70
2023-05-22T15:31:16.755Z,61.20
2023-05-22T15:33:47.050Z,61.30
2023-05-22T15:36:17.107Z,60.60
2023-05-22T15:38:47.241Z,60.60
2023-05-22T15:41:17.381Z,61.00
2023-05-22T15:43:50.146Z,60.70
2023-05-22T15:46:20.269Z,60.60
2023-05-22T15:48:50.456Z,60.50
2023-05-22T15:51:20.692Z,61.10
2023-05-22T15:53:51.091Z,61.50
2023-05-22T15:56:21.613Z,61.60
2023-05-22T15:58:54.361Z,61.40
2023-05-22T16:01:24.583Z,61.10
2023-05-22T16:03:54.751Z,60.90
2023-05-22T16:06:24.898Z,61.60
2023-05-22T16:08:54.968Z,61.20
2023-05-22T16:11:25.157Z,61.40
2023-05-22T16:13:57.923Z,61.80
2023-05-22T16:16:28.209Z,62.90
2023-05-22T16:18:58.399Z,61.50
2023-05-22T16:21:30.790Z,61.00
2023-05-22T16:24:00.902Z,61.30
2023-05-22T16:26:30.999Z,62.10
2023-05-22T16:29:04.769Z,61.90
2023-05-22T16:31:35.728Z,62.00
2023-05-22T16:34:06.838Z,62.80
2023-05-22T16:36:37.054Z,62.00
2023-05-22T16:39:07.324Z,62.30
2023-05-22T16:41:37.583Z,62.20
2023-05-22T16:44:10.388Z,62.50
2023-05-22T16:46:40.598Z,62.50
2023-05-22T16:49:10.852Z,63.00
2023-05-22T16:51:40.917Z,63.30
2023-05-22T16:54:10.958Z,63.00
2023-05-22T16:56:41.059Z,62.40
2023-05-22T16:59:13.720Z,62.00
2023-05-22T17:01:44.896Z,62.80
2023-05-22T17:04:16.046Z,62.90
2023-05-22T17:06:46.202Z,63.30
2023-05-22T17:09:16.318Z,63.00
2023-05-22T17:11:46.434Z,62.80
2023-05-22T17:14:21.779Z,62.40
2023-05-22T17:16:52.219Z,62.90
2023-05-22T17:19:23.078Z,62.80
2023-05-22T17:21:53.334Z,63.00
2023-05-22T17:24:23.429Z,63.00
2023-05-22T17:26:53.509Z,62.80
2023-05-22T17:29:27.979Z,63.40
2023-05-22T17:31:58.399Z,63.80
2023-05-22T17:34:28.596Z,64.20
2023-05-22T17:36:59.486Z,64.10
2023-05-22T17:39:30.743Z,64.60
2023-05-22T17:42:01.101Z,64.20
2023-05-22T17:44:33.856Z,63.90
2023-05-22T17:47:04.046Z,64.70
2023-05-22T17:49:34.136Z,65.00
2023-05-22T17:52:04.213Z,64.60
2023-05-22T17:54:37.582Z,64.60
2023-05-22T17:57:07.953Z,64.90
2023-05-22T17:59:40.697Z,66.00
2023-05-22T18:02:11.537Z,64.90
2023-05-22T18:04:41.835Z,65.40
2023-05-22T18:07:11.917Z,65.50
2023-05-22T18:09:42.036Z,66.00
2023-05-22T18:12:27.904Z,66.80
2023-05-22T18:15:04.754Z,65.90
2023-05-22T18:17:34.973Z,66.30
2023-05-22T18:20:06.542Z,65.70
2023-05-22T18:22:37.258Z,66.40
2023-05-22T18:25:08.370Z,65.70
2023-05-22T18:27:39.011Z,65.80
2023-05-22T18:30:13.395Z,66.30
2023-05-22T18:32:43.384Z,66.40
2023-05-22T18:35:15.924Z,66.30
2023-05-22T18:37:46.205Z,67.10
2023-05-22T18:40:16.946Z,66.70
2023-05-22T18:42:47.110Z,66.90
2023-05-22T18:45:19.805Z,66.20
2023-05-22T18:47:49.975Z,66.40
2023-05-22T18:50:22.142Z,67.00
2023-05-22T18:52:53.471Z,67.40
2023-05-22T18:55:23.742Z,67.20
2023-05-22T18:57:53.817Z,68.00
2023-05-22T19:00:26.569Z,67.50
2023-05-22T19:02:56.709Z,67.70
2023-05-22T19:05:27.229Z,67.30
2023-05-22T19:07:57.388Z,67.40
2023-05-22T19:10:27.499Z,67.80
2023-05-22T19:12:57.572Z,68.30
2023-05-22T19:15:30.316Z,68.30
2023-05-22T19:18:00.555Z,68.70
2023-05-22T19:20:30.788Z,68.40
2023-05-22T19:23:01.148Z,69.30
2023-05-22T19:25:32.149Z,70.20
2023-05-22T19:28:02.200Z,69.40
2023-05-22T19:30:34.923Z,69.40
2023-05-22T19:33:06.538Z,69.50
2023-05-22T19:35:38.868Z,70.40
2023-05-22T19:38:08.998Z,70.80
2023-05-22T19:40:39.533Z,70.00
2023-05-22T19:43:09.908Z,71.10
2023-05-22T19:45:42.605Z,70.60
2023-05-22T19:48:13.382Z,70.50
2023-05-22T19:50:43.487Z,70.30
2023-05-22T19:53:13.864Z,70.70
2023-05-22T19:55:43.915Z,71.70
2023-05-22T19:58:13.983Z,71.60
2023-05-22T20:00:47.232Z,70.90
2023-05-22T20:03:17.413Z,71.00
2023-05-22T20:05:47.535Z,71.70
2023-05-22T20:08:17.699Z,71.40
2023-05-22T20:10:47.771Z,71.70
2023-05-22T20:13:17.868Z,71.80
2023-05-22T20:15:51.500Z,71.90
2023-05-22T20:18:22.328Z,74.00
2023-05-22T20:20:52.518Z,73.80
2023-05-22T20:23:22.585Z,74.50
2023-05-22T20:25:52.880Z,73.70
2023-05-22T20:28:22.934Z,74.20
2023-05-22T20:30:55.633Z,74.50
2023-05-22T20:33:27.745Z,74.10
2023-05-22T20:35:58.704Z,74.50
2023-05-22T20:38:29.480Z,74.60
2023-05-22T20:41:00.967Z,75.00
2023-05-22T20:43:31.774Z,75.20
2023-05-22T20:46:04.449Z,75.70
2023-05-22T20:48:34.549Z,77.50
2023-05-22T20:51:04.637Z,76.20
2023-05-22T20:53:34.826Z,75.90
2023-05-22T20:56:04.880Z,76.30
2023-05-22T20:58:34.932Z,76.40
2023-05-22T21:01:07.795Z,76.70
2023-05-22T21:03:37.953Z,77.00
2023-05-22T21:06:09.141Z,77.00
2023-05-22T21:08:39.167Z,77.00
2023-05-22T21:11:09.255Z,77.10
2023-05-22T21:13:39.310Z,78.20
2023-05-22T21:16:12.180Z,79.10
2023-05-22T21:18:42.331Z,78.00
2023-05-22T21:21:12.465Z,78.60
2023-05-22T21:23:43.178Z,78.80
2023-05-22T21:26:13.281Z,79.10
2023-05-22T21:28:44.780Z,78.90
2023-05-22T21:31:17.554Z,78.90
2023-05-22T21:33:48.081Z,79.00
2023-05-22T21:36:18.399Z,78.90
2023-05-22T21:38:48.912Z,79.00
2023-05-22T21:41:19.001Z,80.50
2023-05-22T21:43:49.744Z,79.70
2023-05-22T21:46:23.536Z,79.80
2023-05-22T21:48:53.947Z,80.40
2023-05-22T21:51:24.115Z,80.50
2023-05-22T21:53:54.184Z,82.30
2023-05-22T21:56:24.406Z,81.40
2023-05-22T21:58:54.521Z,81.30
2023-05-22T22:01:27.316Z,81.80
2023-05-22T22:03:57.500Z,81.70
2023-05-22T22:06:27.695Z,83.00
2023-05-22T22:08:59.902Z,82.50
2023-05-22T22:11:30.124Z,82.30
2023-05-22T22:14:00.172Z,82.00
2023-05-22T22:16:36.168Z,84.00
2023-05-22T22:19:06.692Z,82.10
2023-05-22T22:21:36.905Z,82.40
2023-05-22T22:24:07.311Z,82.80
2023-05-22T22:26:37.391Z,82.70
2023-05-22T22:29:07.477Z,83.50
2023-05-22T22:31:40.811Z,82.90
2023-05-22T22:34:11.055Z,83.70
2023-05-22T22:36:41.146Z,83.90
2023-05-22T22:39:11.399Z,83.80
2023-05-22T22:41:41.678Z,84.30
2023-05-22T22:44:11.752Z,84.00
2023-05-22T22:46:45.972Z,84.40
2023-05-22T22:49:16.055Z,84.50
2023-05-22T22:51:46.132Z,85.30
2023-05-22T22:54:17.657Z,84.60
2023-05-22T22:56:50.019Z,84.60
2023-05-22T22:59:20.313Z,85.60
2023-05-22T23:01:53.090Z,85.40
2023-05-22T23:04:23.504Z,85.40
2023-05-22T23:06:53.612Z,85.00
2023-05-22T23:09:23.666Z,85.00
2023-05-22T23:11:57.005Z,85.50
2023-05-22T23:14:28.207Z,85.90
2023-05-22T23:17:00.896Z,85.50
2023-05-22T23:19:31.070Z,85.30
2023-05-22T23:22:01.237Z,85.20
2023-05-22T23:24:31.323Z,85.50
2023-05-22T23:27:01.592Z,85.30
2023-05-22T23:29:31.688Z,85.80
2023-05-22T23:32:04.378Z,86.00
2023-05-22T23:34:34.486Z,86.20
2023-05-22T23:37:04.567Z,86.00
2023-05-22T23:39:34.617Z,86.00
2023-05-22T23:42:05.074Z,86.50
2023-05-22T23:44:35.263Z,86.90
2023-05-22T23:47:08.493Z,86.50
2023-05-22T23:49:38.629Z,86.80
2023-05-22T23:52:08.751Z,90.00
2023-05-22T23:54:38.818Z,87.50
2023-05-22T23:57:09.048Z,88.70
2023-05-22T23:59:39.264Z,88.60
